createdAt,value
2022-10-30T00:00:36.135Z,89.17
2022-10-30T00:03:04.129Z,89.07
2022-10-30T00:05:32.521Z,88.92
2022-10-30T00:08:00.734Z,88.69
2022-10-30T00:10:28.681Z,88.64
2022-10-30T00:12:56.322Z,88.41
2022-10-30T00:15:24.320Z,88.37
2022-10-30T00:17:54.068Z,88.13
2022-10-30T00:20:22.046Z,87.69
2022-10-30T00:22:49.659Z,87.68
2022-10-30T00:25:17.833Z,87.56
2022-10-30T00:27:45.474Z,87.22
2022-10-30T00:30:15.563Z,87.47
2022-10-30T00:32:43.858Z,87.65
2022-10-30T00:35:13.524Z,87.65
2022-10-30T00:37:41.353Z,87.66
2022-10-30T00:40:15.143Z,87.84
2022-10-30T00:42:43.345Z,87.73
2022-10-30T00:45:12.737Z,87.95
2022-10-30T00:47:44.174Z,87.85
2022-10-30T00:50:18.355Z,88.00
2022-10-30T00:52:52.103Z,87.87
2022-10-30T00:55:24.025Z,87.49
2022-10-30T00:57:53.131Z,87.01
2022-10-30T01:00:23.905Z,87.39
2022-10-30T01:02:52.224Z,87.09
2022-10-30T01:05:25.330Z,87.31
2022-10-30T01:07:53.224Z,87.22
2022-10-30T01:10:22.273Z,87.17
2022-10-30T01:12:52.282Z,87.33
2022-10-30T01:15:25.754Z,87.30
2022-10-30T01:18:17.753Z,87.68
2022-10-30T01:21:18.150Z,87.55
2022-10-30T01:23:56.710Z,87.54
2022-10-30T01:26:37.905Z,87.57
2022-10-30T01:29:20.724Z,87.32
2022-10-30T01:31:58.747Z,86.99
2022-10-30T01:34:39.047Z,87.28
2022-10-30T01:37:14.789Z,87.27
2022-10-30T01:39:44.688Z,87.22
2022-10-30T01:42:49.216Z,86.45
2022-10-30T01:45:27.599Z,86.62
2022-10-30T01:48:32.090Z,86.91
2022-10-30T01:51:10.746Z,86.36
2022-10-30T01:53:51.390Z,86.55
2022-10-30T01:56:28.096Z,87.21
2022-10-30T01:59:10.229Z,87.55
2022-10-30T02:01:40.165Z,87.27
2022-10-30T02:04:09.367Z,86.73
2022-10-30T02:06:38.462Z,85.84
2022-10-30T02:09:06.676Z,86.61
2022-10-30T02:11:36.568Z,87.57
2022-10-30T02:14:08.057Z,87.86
2022-10-30T02:16:40.441Z,88.47
2022-10-30T02:19:08.074Z,88.03
2022-10-30T02:21:37.530Z,88.21
2022-10-30T02:24:05.732Z,88.22
2022-10-30T02:26:33.753Z,88.52
2022-10-30T02:29:03.255Z,88.47
2022-10-30T02:31:31.452Z,88.32
2022-10-30T02:33:59.168Z,88.15
2022-10-30T02:36:28.219Z,89.00
2022-10-30T02:38:57.751Z,89.68
2022-10-30T02:41:25.704Z,89.98
2022-10-30T02:43:54.461Z,90.43
2022-10-30T02:46:22.971Z,90.00
2022-10-30T02:48:50.669Z,89.75
2022-10-30T02:51:18.752Z,89.33
2022-10-30T02:53:47.728Z,88.57
2022-10-30T02:56:17.066Z,87.99
2022-10-30T02:58:45.420Z,87.69
2022-10-30T03:01:15.388Z,87.17
2022-10-30T03:03:44.674Z,87.33
2022-10-30T03:06:15.474Z,86.93
2022-10-30T03:08:43.670Z,86.46
2022-10-30T03:11:13.454Z,85.83
2022-10-30T03:13:43.448Z,85.01
2022-10-30T03:16:12.969Z,83.83
2022-10-30T03:18:42.210Z,83.51
2022-10-30T03:21:14.629Z,83.73
2022-10-30T03:23:42.728Z,84.46
2022-10-30T03:26:11.023Z,85.22
2022-10-30T03:28:50.948Z,85.95
2022-10-30T03:31:20.111Z,85.85
2022-10-30T03:33:54.533Z,85.69
2022-10-30T03:36:22.821Z,86.39
2022-10-30T03:38:50.876Z,85.56
2022-10-30T03:41:21.746Z,86.12
2022-10-30T03:43:50.766Z,86.67
2022-10-30T03:46:18.521Z,86.81
2022-10-30T03:48:49.838Z,87.13
2022-10-30T03:51:18.264Z,86.93
2022-10-30T03:53:47.676Z,87.02
2022-10-30T03:56:15.393Z,87.65
2022-10-30T03:58:51.617Z,87.91
2022-10-30T04:01:22.603Z,87.18
2022-10-30T04:03:56.335Z,87.93
2022-10-30T04:06:25.921Z,89.06
2022-10-30T04:08:55.753Z,88.08
2022-10-30T04:11:24.611Z,90.12
2022-10-30T04:13:53.891Z,88.95
2022-10-30T04:16:21.544Z,88.88
2022-10-30T04:18:49.885Z,88.75
2022-10-30T04:21:17.638Z,88.96
2022-10-30T04:23:45.666Z,89.22
2022-10-30T04:26:15.065Z,88.57
2022-10-30T04:28:44.764Z,88.36
2022-10-30T04:31:13.743Z,88.91
2022-10-30T04:33:41.466Z,89.52
2022-10-30T04:36:09.773Z,89.14
2022-10-30T04:38:37.802Z,88.57
2022-10-30T04:41:07.754Z,87.73
2022-10-30T04:43:49.427Z,87.14
2022-10-30T04:46:18.889Z,85.96
2022-10-30T04:48:47.431Z,84.88
2022-10-30T04:51:15.996Z,84.08
2022-10-30T04:53:45.440Z,83.39
2022-10-30T04:56:16.425Z,82.76
2022-10-30T04:58:44.447Z,82.51
2022-10-30T05:01:12.230Z,83.20
2022-10-30T05:03:41.792Z,83.35
2022-10-30T05:06:21.445Z,83.43
2022-10-30T05:08:49.718Z,83.53
2022-10-30T05:11:27.657Z,83.75
2022-10-30T05:13:56.722Z,83.75
2022-10-30T05:16:24.689Z,83.86
2022-10-30T05:18:54.915Z,84.26
2022-10-30T05:21:22.907Z,84.68
2022-10-30T05:23:51.204Z,84.97
2022-10-30T05:26:20.314Z,85.14
2022-10-30T05:28:48.988Z,85.05
2022-10-30T05:31:16.648Z,85.46
2022-10-30T05:34:07.253Z,85.20
2022-10-30T05:36:36.871Z,84.89
2022-10-30T05:39:05.029Z,84.58
2022-10-30T05:41:36.693Z,84.54
2022-10-30T05:44:05.049Z,85.09
2022-10-30T05:46:34.152Z,85.30
2022-10-30T05:49:19.921Z,85.70
2022-10-30T05:51:48.140Z,85.78
2022-10-30T05:54:17.041Z,85.36
2022-10-30T05:57:00.563Z,85.21
2022-10-30T05:59:30.058Z,85.29
2022-10-30T06:01:58.260Z,85.88
2022-10-30T06:04:27.725Z,86.49
2022-10-30T06:06:55.544Z,86.32
2022-10-30T06:09:23.205Z,86.38
2022-10-30T06:11:59.673Z,86.63
2022-10-30T06:14:42.476Z,87.01
2022-10-30T06:17:10.502Z,86.73
2022-10-30T06:19:55.208Z,86.86
2022-10-30T06:22:41.553Z,86.66
2022-10-30T06:25:16.453Z,87.00
2022-10-30T06:28:05.405Z,86.88
2022-10-30T06:30:33.709Z,87.08
2022-10-30T06:33:03.451Z,87.22
2022-10-30T06:35:33.588Z,86.77
2022-10-30T06:38:01.844Z,87.16
2022-10-30T06:40:31.810Z,87.22
2022-10-30T06:43:18.163Z,87.24
2022-10-30T06:48:37.541Z,86.92
2022-10-30T06:51:07.111Z,86.69
2022-10-30T06:53:38.502Z,86.43
2022-10-30T06:56:29.256Z,86.27
2022-10-30T06:59:11.417Z,86.22
2022-10-30T07:02:06.985Z,85.55
2022-10-30T07:04:46.009Z,84.74
2022-10-30T07:07:15.940Z,84.60
2022-10-30T07:09:44.217Z,85.00
2022-10-30T07:12:13.383Z,84.65
2022-10-30T07:15:00.296Z,84.12
2022-10-30T07:17:36.216Z,84.10
2022-10-30T07:20:11.453Z,83.61
2022-10-30T07:22:41.284Z,83.59
2022-10-30T07:25:09.841Z,83.20
2022-10-30T07:27:55.016Z,83.11
2022-10-30T07:30:43.067Z,83.66
2022-10-30T07:33:17.265Z,84.51
2022-10-30T07:36:01.919Z,84.29
2022-10-30T07:38:46.542Z,84.12
2022-10-30T07:41:34.648Z,83.78
2022-10-30T07:44:34.441Z,84.08
2022-10-30T07:47:34.475Z,82.17
2022-10-30T07:50:30.051Z,81.90
2022-10-30T07:52:57.776Z,81.61
2022-10-30T07:55:29.622Z,81.06
2022-10-30T07:58:15.725Z,80.59
2022-10-30T08:01:06.524Z,80.06
2022-10-30T08:03:35.403Z,79.26
2022-10-30T08:06:24.776Z,79.05
2022-10-30T08:08:55.429Z,78.53
2022-10-30T08:11:29.991Z,78.45
2022-10-30T08:14:00.388Z,78.07
2022-10-30T08:16:28.837Z,77.17
2022-10-30T08:18:58.291Z,75.50
2022-10-30T08:21:26.560Z,72.88
2022-10-30T08:24:14.476Z,71.19
2022-10-30T08:26:47.224Z,71.08
2022-10-30T08:29:15.128Z,72.16
2022-10-30T08:31:45.022Z,70.98
2022-10-30T08:34:26.598Z,69.12
2022-10-30T08:36:55.902Z,66.69
2022-10-30T08:39:25.195Z,64.42
2022-10-30T08:42:00.715Z,62.18
2022-10-30T08:44:34.711Z,61.65
2022-10-30T08:47:14.320Z,58.23
2022-10-30T08:49:42.501Z,56.82
2022-10-30T08:52:11.489Z,56.42
2022-10-30T08:54:40.537Z,55.00
2022-10-30T08:57:09.941Z,54.19
2022-10-30T08:59:40.465Z,53.44
2022-10-30T09:02:14.250Z,51.77
2022-10-30T09:05:01.035Z,50.69
2022-10-30T09:07:47.391Z,48.61
2022-10-30T09:10:33.846Z,50.16
2022-10-30T09:13:03.541Z,49.54
2022-10-30T09:15:32.168Z,49.10
2022-10-30T09:18:02.012Z,49.23
2022-10-30T09:20:30.794Z,49.58
2022-10-30T09:22:59.581Z,49.38
2022-10-30T09:25:27.960Z,50.15
2022-10-30T09:28:15.358Z,48.56
2022-10-30T09:31:18.493Z,47.10
2022-10-30T09:33:46.703Z,46.44
2022-10-30T09:36:35.100Z,45.62
2022-10-30T09:39:02.816Z,45.72
2022-10-30T09:41:55.789Z,44.89
2022-10-30T09:44:37.042Z,46.35
2022-10-30T09:47:23.049Z,46.20
2022-10-30T09:50:04.456Z,45.02
2022-10-30T09:52:48.191Z,44.96
2022-10-30T09:55:29.543Z,44.46
2022-10-30T09:58:05.449Z,42.89
2022-10-30T10:00:39.515Z,41.91
2022-10-30T10:03:28.211Z,41.09
2022-10-30T10:06:21.121Z,41.42
2022-10-30T10:09:08.058Z,40.59
2022-10-30T10:12:07.309Z,40.48
2022-10-30T10:14:38.481Z,41.17
2022-10-30T10:17:14.145Z,40.33
2022-10-30T10:19:49.517Z,40.01
2022-10-30T10:22:22.625Z,38.74
2022-10-30T10:24:50.841Z,38.05
2022-10-30T10:27:28.819Z,36.97
2022-10-30T10:30:05.255Z,37.10
2022-10-30T10:32:48.741Z,36.22
2022-10-30T10:35:35.654Z,35.33
2022-10-30T10:38:14.305Z,35.14
2022-10-30T10:40:54.918Z,34.90
2022-10-30T10:43:32.391Z,34.43
2022-10-30T10:46:23.158Z,35.31
2022-10-30T10:49:04.153Z,34.30
2022-10-30T10:51:37.206Z,34.65
2022-10-30T10:54:12.515Z,35.13
2022-10-30T10:56:43.633Z,35.75
2022-10-30T10:59:17.832Z,37.35
2022-10-30T11:01:50.861Z,40.44
2022-10-30T11:04:27.999Z,42.17
2022-10-30T11:06:57.379Z,42.58
2022-10-30T11:09:27.748Z,43.40
2022-10-30T11:11:56.260Z,43.90
2022-10-30T11:14:26.084Z,45.24
2022-10-30T11:17:11.962Z,45.68
2022-10-30T11:19:41.325Z,46.00
2022-10-30T11:22:20.149Z,46.56
2022-10-30T11:24:47.821Z,46.39
2022-10-30T11:27:25.651Z,46.00
2022-10-30T11:29:55.701Z,46.08
2022-10-30T11:32:27.175Z,46.29
2022-10-30T11:35:13.861Z,46.18
2022-10-30T11:37:43.312Z,47.01
2022-10-30T11:40:19.328Z,46.96
2022-10-30T11:42:49.441Z,46.54
2022-10-30T11:45:19.885Z,46.26
2022-10-30T11:47:48.325Z,47.22
2022-10-30T11:50:21.588Z,46.84
2022-10-30T11:52:51.550Z,48.18
2022-10-30T11:55:23.642Z,48.17
2022-10-30T11:57:53.204Z,49.19
2022-10-30T12:00:24.249Z,50.62
2022-10-30T12:02:54.618Z,49.70
2022-10-30T12:05:37.380Z,49.20
2022-10-30T12:08:19.565Z,48.31
2022-10-30T12:10:55.511Z,47.91
2022-10-30T12:13:24.881Z,47.84
2022-10-30T12:16:07.093Z,47.89
2022-10-30T12:18:35.562Z,48.46
2022-10-30T12:21:05.571Z,47.79
2022-10-30T12:23:34.382Z,48.12
2022-10-30T12:26:09.273Z,47.32
2022-10-30T12:28:37.533Z,48.00
2022-10-30T12:31:10.614Z,47.69
2022-10-30T12:33:43.459Z,48.64
2022-10-30T12:36:17.429Z,49.40
2022-10-30T12:38:48.444Z,50.56
2022-10-30T12:41:21.547Z,50.88
2022-10-30T12:43:57.437Z,49.92
2022-10-30T12:46:33.208Z,50.14
2022-10-30T12:49:11.773Z,50.23
2022-10-30T12:51:47.547Z,50.17
2022-10-30T12:54:24.335Z,51.63
2022-10-30T12:57:06.819Z,51.54
2022-10-30T12:59:42.174Z,52.09
2022-10-30T13:02:22.098Z,51.15
2022-10-30T13:04:57.782Z,51.42
2022-10-30T13:07:32.508Z,51.79
2022-10-30T13:10:14.208Z,51.97
2022-10-30T13:12:46.014Z,52.69
2022-10-30T13:15:22.834Z,53.08
2022-10-30T13:17:51.871Z,53.21
2022-10-30T13:20:20.215Z,53.12
2022-10-30T13:22:54.903Z,53.62
2022-10-30T13:25:29.241Z,54.14
2022-10-30T13:28:05.020Z,54.21
2022-10-30T13:30:38.233Z,54.89
2022-10-30T13:33:16.100Z,54.33
2022-10-30T13:35:52.210Z,54.19
2022-10-30T13:38:36.341Z,54.55
2022-10-30T13:41:15.418Z,54.81
2022-10-30T13:43:50.832Z,54.49
2022-10-30T13:46:28.131Z,54.71
2022-10-30T13:49:13.881Z,55.18
2022-10-30T13:51:45.305Z,55.26
2022-10-30T13:54:22.057Z,54.32
2022-10-30T13:56:51.716Z,54.22
2022-10-30T13:59:36.620Z,54.23
2022-10-30T14:02:15.706Z,54.53
2022-10-30T14:04:53.525Z,55.03
2022-10-30T14:07:31.887Z,54.73
2022-10-30T14:10:09.611Z,54.74
2022-10-30T14:13:06.484Z,54.78
2022-10-30T14:15:41.850Z,55.24
2022-10-30T14:18:26.097Z,55.74
2022-10-30T14:20:54.927Z,55.95
2022-10-30T14:23:25.033Z,56.28
2022-10-30T14:26:15.891Z,56.17
2022-10-30T14:28:45.471Z,56.00
2022-10-30T14:31:16.898Z,55.54
2022-10-30T14:33:50.225Z,56.05
2022-10-30T14:36:21.560Z,56.94
2022-10-30T14:39:00.236Z,56.91
2022-10-30T14:41:49.623Z,56.66
2022-10-30T14:44:25.643Z,57.46
2022-10-30T14:47:05.120Z,57.90
2022-10-30T14:49:45.324Z,58.33
2022-10-30T14:52:22.024Z,58.39
2022-10-30T14:54:57.610Z,58.74
2022-10-30T14:57:47.759Z,58.91
2022-10-30T15:00:41.029Z,58.46
2022-10-30T15:03:18.269Z,59.12
2022-10-30T15:05:52.677Z,59.40
2022-10-30T15:08:35.827Z,60.21
2022-10-30T15:11:32.856Z,60.14
2022-10-30T15:14:12.523Z,59.96
2022-10-30T15:16:52.046Z,60.12
2022-10-30T15:19:23.371Z,60.88
2022-10-30T15:21:54.607Z,61.85
2022-10-30T15:24:29.572Z,63.34
2022-10-30T15:27:01.458Z,63.45
2022-10-30T15:29:34.741Z,63.74
2022-10-30T15:32:04.385Z,63.39
2022-10-30T15:34:34.321Z,64.33
2022-10-30T15:37:12.066Z,64.74
2022-10-30T15:39:39.753Z,65.54
2022-10-30T15:42:07.748Z,66.59
2022-10-30T15:44:39.943Z,66.96
2022-10-30T15:47:16.112Z,67.26
2022-10-30T15:49:50.041Z,67.59
2022-10-30T15:52:23.218Z,67.87
2022-10-30T15:54:59.045Z,68.63
2022-10-30T15:58:01.131Z,69.54
2022-10-30T16:00:26.155Z,70.26
2022-10-30T16:03:04.885Z,70.53
2022-10-30T16:05:33.537Z,70.95
2022-10-30T16:08:03.310Z,71.53
2022-10-30T16:10:34.604Z,72.32
2022-10-30T16:13:03.949Z,72.17
2022-10-30T16:15:35.743Z,72.93
2022-10-30T16:18:20.509Z,73.38
2022-10-30T16:20:51.695Z,74.23
2022-10-30T16:23:21.823Z,74.96
2022-10-30T16:25:55.602Z,75.23
2022-10-30T16:28:29.307Z,75.53
2022-10-30T16:31:01.829Z,75.54
2022-10-30T16:33:31.627Z,75.80
2022-10-30T16:36:00.849Z,76.40
2022-10-30T16:38:32.660Z,76.63
2022-10-30T16:41:00.699Z,76.82
2022-10-30T16:43:30.793Z,76.91
2022-10-30T16:46:28.492Z,77.28
2022-10-30T16:49:00.127Z,77.44
2022-10-30T16:51:28.409Z,77.88
2022-10-30T16:53:56.831Z,77.86
2022-10-30T16:56:26.946Z,77.97
2022-10-30T16:58:58.871Z,77.99
2022-10-30T17:01:29.203Z,78.40
2022-10-30T17:03:58.914Z,78.80
2022-10-30T17:06:29.107Z,78.80
2022-10-30T17:09:00.156Z,78.93
2022-10-30T17:11:40.221Z,79.52
2022-10-30T17:14:19.025Z,80.29
2022-10-30T17:16:56.120Z,80.75
2022-10-30T17:19:40.423Z,81.04
2022-10-30T17:22:14.750Z,81.25
2022-10-30T17:24:42.926Z,81.35
2022-10-30T17:27:29.749Z,80.83
2022-10-30T17:29:57.539Z,81.74
2022-10-30T17:32:29.079Z,81.43
2022-10-30T17:35:01.902Z,81.37
2022-10-30T17:37:30.123Z,81.46
2022-10-30T17:39:57.792Z,82.24
2022-10-30T17:42:25.774Z,82.31
2022-10-30T17:44:53.586Z,82.51
2022-10-30T17:47:21.754Z,82.66
2022-10-30T17:49:50.879Z,83.04
2022-10-30T17:52:21.843Z,83.30
2022-10-30T17:54:49.635Z,84.38
2022-10-30T17:57:18.167Z,84.85
2022-10-30T17:59:45.837Z,84.73
2022-10-30T18:02:15.966Z,84.52
2022-10-30T18:04:44.420Z,84.86
2022-10-30T18:07:15.889Z,85.00
2022-10-30T18:09:44.420Z,83.69
2022-10-30T18:12:15.084Z,83.53
2022-10-30T18:14:45.384Z,83.79
2022-10-30T18:17:13.279Z,83.93
2022-10-30T18:19:41.252Z,83.88
2022-10-30T18:22:10.503Z,83.56
2022-10-30T18:24:40.132Z,84.26
2022-10-30T18:27:07.747Z,84.15
2022-10-30T18:29:36.005Z,83.62
2022-10-30T18:32:09.205Z,83.34
2022-10-30T18:34:38.386Z,83.62
2022-10-30T18:37:06.348Z,83.04
2022-10-30T18:39:34.522Z,83.38
2022-10-30T18:42:03.611Z,83.51
2022-10-30T18:44:31.763Z,83.21
2022-10-30T18:47:02.944Z,84.75
2022-10-30T18:49:33.647Z,85.23
2022-10-30T18:52:01.372Z,86.43
2022-10-30T18:54:29.781Z,86.33
2022-10-30T18:56:57.466Z,86.70
2022-10-30T18:59:27.153Z,86.69
2022-10-30T19:01:54.887Z,86.64
2022-10-30T19:04:22.978Z,86.29
2022-10-30T19:06:50.920Z,86.75
2022-10-30T19:09:19.056Z,87.00
2022-10-30T19:11:46.697Z,87.09
2022-10-30T19:14:15.968Z,86.84
2022-10-30T19:16:44.984Z,85.06
2022-10-30T19:19:15.190Z,85.36
2022-10-30T19:21:42.971Z,85.76
2022-10-30T19:24:15.078Z,85.68
2022-10-30T19:26:42.839Z,85.40
2022-10-30T19:29:10.829Z,86.35
2022-10-30T19:31:38.485Z,86.80
2022-10-30T19:34:07.521Z,87.19
2022-10-30T19:36:37.034Z,87.55
2022-10-30T19:39:10.403Z,88.21
2022-10-30T19:41:38.629Z,87.37
2022-10-30T19:44:07.626Z,87.51
2022-10-30T19:46:35.432Z,87.17
2022-10-30T19:49:17.355Z,87.19
2022-10-30T19:51:45.022Z,87.73
2022-10-30T19:54:12.685Z,87.34
2022-10-30T19:56:42.147Z,87.14
2022-10-30T19:59:10.479Z,86.61
2022-10-30T20:01:38.237Z,86.47
2022-10-30T20:04:06.316Z,86.56
2022-10-30T20:06:35.304Z,87.27
2022-10-30T20:09:03.450Z,87.58
2022-10-30T20:11:31.867Z,85.88
2022-10-30T20:13:59.940Z,84.98
2022-10-30T20:16:27.628Z,85.01
2022-10-30T20:18:55.603Z,85.07
2022-10-30T20:21:23.217Z,85.26
2022-10-30T20:23:52.673Z,85.91
2022-10-30T20:26:24.996Z,85.97
2022-10-30T20:28:53.801Z,86.73
2022-10-30T20:31:21.485Z,87.12
2022-10-30T20:33:49.222Z,87.08
2022-10-30T20:36:17.121Z,86.92
2022-10-30T20:38:44.900Z,85.94
2022-10-30T20:41:21.592Z,85.06
2022-10-30T20:43:50.162Z,85.00
2022-10-30T20:46:18.729Z,84.93
2022-10-30T20:48:46.410Z,84.55
2022-10-30T20:51:14.803Z,85.19
2022-10-30T20:53:42.552Z,85.05
2022-10-30T20:56:11.186Z,85.82
2022-10-30T20:58:40.646Z,84.84
2022-10-30T21:01:08.551Z,85.80
2022-10-30T21:03:36.256Z,86.40
2022-10-30T21:06:04.098Z,87.04
2022-10-30T21:08:32.802Z,87.40
2022-10-30T21:11:01.689Z,87.98
2022-10-30T21:13:30.251Z,88.71
2022-10-30T21:16:03.523Z,88.52
2022-10-30T21:18:32.391Z,89.26
2022-10-30T21:21:01.361Z,89.77
2022-10-30T21:23:29.210Z,89.13
2022-10-30T21:26:00.180Z,88.66
2022-10-30T21:28:28.136Z,88.19
2022-10-30T21:30:55.768Z,88.29
2022-10-30T21:33:25.431Z,88.44
2022-10-30T21:35:53.396Z,88.71
2022-10-30T21:38:21.007Z,88.87
2022-10-30T21:40:55.769Z,89.00
2022-10-30T21:43:23.425Z,89.18
2022-10-30T21:45:51.484Z,88.87
2022-10-30T21:48:19.340Z,88.08
2022-10-30T21:50:48.652Z,88.05
2022-10-30T21:53:16.273Z,87.88
2022-10-30T21:55:43.959Z,88.08
2022-10-30T21:58:11.583Z,88.16
2022-10-30T22:00:39.527Z,87.99
2022-10-30T22:03:07.215Z,88.65
2022-10-30T22:05:35.054Z,88.88
2022-10-30T22:08:04.052Z,88.17
2022-10-30T22:10:31.719Z,88.24
2022-10-30T22:12:59.410Z,88.07
2022-10-30T22:15:27.408Z,88.66
2022-10-30T22:17:55.012Z,87.74
2022-10-30T22:20:23.306Z,87.33
2022-10-30T22:22:50.990Z,87.12
2022-10-30T22:25:19.981Z,87.28
2022-10-30T22:27:48.263Z,86.73
2022-10-30T22:30:16.120Z,87.28
2022-10-30T22:32:43.755Z,87.22
2022-10-30T22:35:11.837Z,87.25
2022-10-30T22:37:39.441Z,87.10
2022-10-30T22:40:08.138Z,87.08
2022-10-30T22:42:37.342Z,87.22
2022-10-30T22:45:05.668Z,87.90
2022-10-30T22:47:33.292Z,87.59
2022-10-30T22:50:00.978Z,88.34
2022-10-30T22:52:28.601Z,88.34
2022-10-30T22:54:56.821Z,88.71
2022-10-30T22:57:24.534Z,89.02
2022-10-30T22:59:53.509Z,89.11
2022-10-30T23:02:21.559Z,88.73
2022-10-30T23:04:49.233Z,88.81
2022-10-30T23:07:18.105Z,87.72
2022-10-30T23:09:45.756Z,86.65
2022-10-30T23:12:13.390Z,88.32
2022-10-30T23:14:41.061Z,88.46
2022-10-30T23:17:10.388Z,87.77
2022-10-30T23:19:38.067Z,88.78
2022-10-30T23:22:06.035Z,88.33
2022-10-30T23:24:33.825Z,88.32
2022-10-30T23:27:01.779Z,88.73
2022-10-30T23:29:29.392Z,88.14
2022-10-30T23:31:57.036Z,89.25
2022-10-30T23:34:25.983Z,87.79
2022-10-30T23:36:57.707Z,87.89
2022-10-30T23:39:29.304Z,87.96
2022-10-30T23:41:57.285Z,88.00
2022-10-30T23:44:24.975Z,87.98
2022-10-30T23:46:52.619Z,88.42
2022-10-30T23:49:20.331Z,88.33
2022-10-30T23:51:49.652Z,88.29
2022-10-30T23:54:17.295Z,87.80
2022-10-30T23:56:45.313Z,88.11
2022-10-30T23:59:12.948Z,88.05
